createdAt,value
2018-03-30T00:00:44.348Z,5.10
2018-03-30T00:03:11.814Z,5.20
2018-03-30T00:05:40.119Z,5.50
2018-03-30T00:08:08.372Z,5.50
2018-03-30T00:10:41.413Z,5.50
2018-03-30T00:13:08.901Z,5.50
2018-03-30T00:15:36.364Z,5.50
2018-03-30T00:18:03.844Z,5.50
2018-03-30T00:20:32.097Z,5.50
2018-03-30T00:22:59.576Z,5.50
2018-03-30T00:25:27.086Z,5.50
2018-03-30T00:27:54.579Z,5.40
2018-03-30T00:30:22.041Z,5.50
2018-03-30T00:32:50.329Z,5.50
2018-03-30T00:35:17.784Z,5.40
2018-03-30T00:37:45.343Z,5.40
2018-03-30T00:40:12.832Z,5.40
2018-03-30T00:42:41.092Z,5.40
2018-03-30T00:45:09.352Z,5.30
2018-03-30T00:47:36.804Z,5.30
2018-03-30T00:50:04.423Z,5.30
2018-03-30T00:52:31.950Z,5.40
2018-03-30T00:55:00.200Z,5.40
2018-03-30T00:57:27.666Z,5.40
2018-03-30T00:59:55.158Z,5.70
2018-03-30T01:02:22.640Z,5.70
2018-03-30T01:04:50.160Z,5.70
2018-03-30T01:07:17.621Z,5.90
2018-03-30T01:09:45.872Z,6.40
2018-03-30T01:12:13.371Z,6.40
2018-03-30T01:14:40.846Z,6.50
2018-03-30T01:17:08.329Z,6.70
2018-03-30T01:19:35.841Z,6.80
2018-03-30T01:22:04.081Z,7.10
2018-03-30T01:24:31.570Z,7.10
2018-03-30T01:26:59.828Z,7.00
2018-03-30T01:29:27.350Z,7.00
2018-03-30T01:31:54.851Z,7.00
2018-03-30T01:34:22.334Z,7.00
2018-03-30T01:36:49.856Z,6.90
2018-03-30T01:39:17.405Z,6.90
2018-03-30T01:41:44.884Z,6.90
2018-03-30T01:44:13.134Z,7.00
2018-03-30T01:46:41.409Z,7.00
2018-03-30T01:49:09.676Z,6.90
2018-03-30T01:51:37.167Z,6.90
2018-03-30T01:54:04.636Z,6.90
2018-03-30T01:56:32.302Z,7.00
2018-03-30T01:58:59.812Z,7.10
2018-03-30T02:01:27.275Z,7.20
2018-03-30T02:03:54.741Z,7.30
2018-03-30T02:06:22.227Z,7.40
2018-03-30T02:08:49.707Z,7.40
2018-03-30T02:11:17.958Z,7.30
2018-03-30T02:13:45.486Z,7.30
2018-03-30T02:16:12.988Z,7.30
2018-03-30T02:18:41.218Z,7.40
2018-03-30T02:21:08.699Z,7.40
2018-03-30T02:23:36.181Z,7.40
2018-03-30T02:26:04.448Z,7.30
2018-03-30T02:28:32.017Z,7.40
2018-03-30T02:30:59.505Z,7.30
2018-03-30T02:33:27.032Z,7.30
2018-03-30T02:35:54.492Z,7.20
2018-03-30T02:38:22.739Z,7.10
2018-03-30T02:40:50.199Z,7.10
2018-03-30T02:43:18.444Z,7.10
2018-03-30T02:45:45.903Z,7.10
2018-03-30T02:48:13.396Z,7.10
2018-03-30T02:50:40.909Z,7.10
2018-03-30T02:53:08.378Z,7.10
2018-03-30T02:55:35.858Z,7.10
2018-03-30T02:58:04.102Z,7.20
2018-03-30T03:00:31.576Z,7.10
2018-03-30T03:02:59.135Z,7.20
2018-03-30T03:05:26.583Z,7.10
2018-03-30T03:07:54.071Z,7.10
2018-03-30T03:10:21.538Z,7.10
2018-03-30T03:12:49.003Z,7.10
2018-03-30T03:15:16.490Z,7.10
2018-03-30T03:17:43.950Z,7.10
2018-03-30T03:20:12.191Z,7.00
2018-03-30T03:22:39.670Z,7.00
2018-03-30T03:25:07.142Z,6.90
2018-03-30T03:27:35.358Z,6.80
2018-03-30T03:30:02.841Z,6.80
2018-03-30T03:32:30.305Z,6.80
2018-03-30T03:34:57.804Z,6.70
2018-03-30T03:37:26.022Z,6.80
2018-03-30T03:39:55.514Z,6.80
2018-03-30T03:42:23.003Z,6.80
2018-03-30T03:44:50.492Z,6.70
2018-03-30T03:47:18.718Z,6.60
2018-03-30T03:49:46.201Z,6.60
2018-03-30T03:52:13.652Z,6.50
2018-03-30T03:54:41.138Z,6.50
2018-03-30T03:57:09.389Z,6.40
2018-03-30T03:59:36.856Z,6.40
2018-03-30T04:02:04.334Z,6.30
2018-03-30T04:04:31.785Z,6.30
2018-03-30T04:06:59.263Z,6.20
2018-03-30T04:09:26.749Z,6.20
2018-03-30T04:11:54.241Z,6.10
2018-03-30T04:14:21.712Z,6.00
2018-03-30T04:16:49.224Z,6.00
2018-03-30T04:19:16.711Z,5.90
2018-03-30T04:21:44.181Z,5.90
2018-03-30T04:24:11.646Z,5.90
2018-03-30T04:26:39.893Z,5.70
2018-03-30T04:29:07.375Z,5.70
2018-03-30T04:31:34.852Z,5.70
2018-03-30T04:34:02.357Z,5.70
2018-03-30T04:36:29.825Z,5.70
2018-03-30T04:38:57.302Z,5.70
2018-03-30T04:41:24.790Z,5.70
2018-03-30T04:43:53.047Z,5.60
2018-03-30T04:46:20.523Z,5.60
2018-03-30T04:48:48.039Z,5.60
2018-03-30T04:51:15.504Z,5.60
2018-03-30T04:53:42.998Z,5.60
2018-03-30T04:56:10.480Z,5.60
2018-03-30T04:58:37.951Z,5.60
2018-03-30T05:01:05.426Z,5.60
2018-03-30T05:03:32.931Z,5.60
2018-03-30T05:06:01.165Z,5.50
2018-03-30T05:08:28.649Z,5.50
2018-03-30T05:10:56.122Z,5.50
2018-03-30T05:13:24.363Z,5.40
2018-03-30T05:15:51.836Z,5.40
2018-03-30T05:18:19.332Z,5.40
2018-03-30T05:20:47.593Z,5.30
2018-03-30T05:23:15.868Z,5.30
2018-03-30T05:25:44.143Z,5.30
2018-03-30T05:28:11.604Z,5.30
2018-03-30T05:30:39.915Z,5.40
2018-03-30T05:33:07.383Z,5.30
2018-03-30T05:35:34.897Z,5.40
2018-03-30T05:38:02.410Z,5.40
2018-03-30T05:40:29.905Z,5.40
2018-03-30T05:42:57.370Z,5.50
2018-03-30T05:45:24.893Z,5.60
2018-03-30T05:47:52.389Z,5.60
2018-03-30T05:50:19.936Z,5.70
2018-03-30T05:52:47.426Z,5.70
2018-03-30T05:55:14.980Z,5.70
2018-03-30T05:57:43.218Z,5.60
2018-03-30T06:00:10.696Z,5.60
2018-03-30T06:02:38.191Z,5.70
2018-03-30T06:05:05.687Z,5.70
2018-03-30T06:07:33.216Z,5.70
2018-03-30T06:10:00.683Z,5.80
2018-03-30T06:12:28.189Z,5.80
2018-03-30T06:14:55.676Z,5.80
2018-03-30T06:17:23.179Z,5.80
2018-03-30T06:19:50.676Z,5.80
2018-03-30T06:22:18.916Z,5.70
2018-03-30T06:24:46.382Z,5.70
2018-03-30T06:27:13.886Z,5.70
2018-03-30T06:29:41.358Z,5.70
2018-03-30T06:32:08.878Z,5.70
2018-03-30T06:34:36.332Z,5.80
2018-03-30T06:37:03.823Z,5.90
2018-03-30T06:39:31.285Z,6.00
2018-03-30T06:41:58.773Z,6.00
2018-03-30T06:44:26.246Z,6.10
2018-03-30T06:46:53.741Z,6.20
2018-03-30T06:49:21.976Z,6.40
2018-03-30T06:51:49.433Z,6.30
2018-03-30T06:54:16.911Z,6.50
2018-03-30T06:56:44.384Z,6.50
2018-03-30T06:59:11.879Z,6.60
2018-03-30T07:01:39.364Z,6.70
2018-03-30T07:04:06.945Z,6.80
2018-03-30T07:06:34.470Z,6.80
2018-03-30T07:09:01.975Z,6.90
2018-03-30T07:11:29.591Z,7.10
2018-03-30T07:13:57.093Z,7.40
2018-03-30T07:16:24.625Z,7.40
2018-03-30T07:18:52.151Z,7.40
2018-03-30T07:21:19.757Z,7.60
2018-03-30T07:23:47.234Z,7.80
2018-03-30T07:26:14.722Z,7.90
2018-03-30T07:28:43.221Z,8.50
2018-03-30T07:31:10.751Z,8.40
2018-03-30T07:33:39.066Z,9.60
2018-03-30T07:36:06.567Z,9.60
2018-03-30T07:38:34.069Z,10.30
2018-03-30T07:41:01.660Z,11.10
2018-03-30T07:43:29.160Z,12.00
2018-03-30T07:45:57.082Z,12.20
2018-03-30T07:48:24.625Z,12.70
2018-03-30T07:50:52.214Z,12.90
2018-03-30T07:53:19.716Z,13.70
2018-03-30T07:55:47.973Z,14.80
2018-03-30T07:58:15.454Z,14.80
2018-03-30T08:00:43.724Z,16.50
2018-03-30T08:03:11.975Z,17.10
2018-03-30T08:05:39.472Z,17.10
2018-03-30T08:08:07.801Z,18.20
2018-03-30T08:10:35.298Z,18.10
2018-03-30T08:13:03.547Z,16.80
2018-03-30T08:15:31.014Z,16.80
2018-03-30T08:17:58.526Z,17.20
2018-03-30T08:20:25.986Z,17.60
2018-03-30T08:22:53.484Z,17.40
2018-03-30T08:25:20.969Z,17.30
2018-03-30T08:27:49.249Z,18.30
2018-03-30T08:30:17.516Z,18.70
2018-03-30T08:32:45.007Z,18.70
2018-03-30T08:35:12.500Z,19.40
2018-03-30T08:37:40.005Z,20.30
2018-03-30T08:40:07.571Z,20.10
2018-03-30T08:42:35.125Z,19.60
2018-03-30T08:45:03.383Z,18.60
2018-03-30T08:47:30.895Z,18.50
2018-03-30T08:49:58.390Z,18.10
2018-03-30T08:52:25.983Z,17.20
2018-03-30T08:54:54.214Z,16.50
2018-03-30T08:57:21.684Z,16.50
2018-03-30T08:59:49.166Z,16.90
2018-03-30T09:02:17.498Z,16.90
2018-03-30T09:04:45.005Z,16.90
2018-03-30T09:07:13.599Z,16.30
2018-03-30T09:09:41.879Z,15.90
2018-03-30T09:12:10.100Z,16.00
2018-03-30T09:14:37.607Z,16.00
2018-03-30T09:17:05.856Z,15.60
2018-03-30T09:19:33.377Z,15.60
2018-03-30T09:22:00.926Z,15.80
2018-03-30T09:24:28.471Z,15.80
2018-03-30T09:26:56.762Z,16.60
2018-03-30T09:29:24.244Z,16.60
2018-03-30T09:31:51.726Z,16.50
2018-03-30T09:34:19.226Z,16.20
2018-03-30T09:36:48.045Z,15.20
2018-03-30T09:39:15.554Z,15.10
2018-03-30T09:41:43.031Z,15.20
2018-03-30T09:44:11.323Z,15.40
2018-03-30T09:46:39.168Z,15.40
2018-03-30T09:49:07.407Z,15.60
2018-03-30T09:51:34.891Z,15.60
2018-03-30T09:54:02.510Z,15.70
2018-03-30T09:56:30.130Z,15.60
2018-03-30T09:58:58.362Z,15.30
2018-03-30T10:01:25.872Z,15.30
2018-03-30T10:03:55.016Z,16.30
2018-03-30T10:06:23.586Z,16.30
2018-03-30T10:08:51.108Z,17.20
2018-03-30T10:11:18.536Z,18.10
2018-03-30T10:13:46.036Z,19.00
2018-03-30T10:16:14.342Z,20.60
2018-03-30T10:18:41.814Z,20.50
2018-03-30T10:21:09.297Z,20.70
2018-03-30T10:23:36.832Z,20.70
2018-03-30T10:26:04.328Z,20.80
2018-03-30T10:28:32.083Z,18.70
2018-03-30T10:30:59.543Z,17.90
2018-03-30T10:33:27.026Z,17.70
2018-03-30T10:35:55.269Z,17.40
2018-03-30T10:38:22.743Z,17.30
2018-03-30T10:40:50.209Z,17.00
2018-03-30T10:43:17.715Z,17.40
2018-03-30T10:45:45.190Z,17.10
2018-03-30T10:48:12.734Z,17.90
2018-03-30T10:50:40.222Z,17.80
2018-03-30T10:53:07.711Z,17.80
2018-03-30T10:55:35.982Z,18.70
2018-03-30T10:58:03.467Z,18.70
2018-03-30T11:00:30.935Z,18.40
2018-03-30T11:02:58.433Z,18.40
2018-03-30T11:05:25.958Z,18.20
2018-03-30T11:07:53.413Z,18.10
2018-03-30T11:10:20.943Z,18.30
2018-03-30T11:12:49.206Z,17.20
2018-03-30T11:15:17.481Z,16.90
2018-03-30T11:17:45.019Z,16.80
2018-03-30T11:20:12.538Z,16.50
2018-03-30T11:22:40.023Z,16.90
2018-03-30T11:25:07.491Z,17.20
2018-03-30T11:27:35.007Z,17.30
2018-03-30T11:30:02.966Z,17.30
2018-03-30T11:32:31.202Z,16.50
2018-03-30T11:34:58.815Z,16.50
2018-03-30T11:37:26.343Z,17.00
2018-03-30T11:39:53.809Z,17.10
2018-03-30T11:42:22.106Z,17.10
2018-03-30T11:44:49.598Z,17.10
2018-03-30T11:47:17.168Z,17.10
2018-03-30T11:49:44.667Z,16.80
2018-03-30T11:52:12.167Z,16.30
2018-03-30T11:54:39.619Z,15.90
2018-03-30T11:57:07.119Z,15.70
2018-03-30T11:59:34.615Z,15.20
2018-03-30T12:02:02.113Z,15.30
2018-03-30T12:04:29.577Z,15.40
2018-03-30T12:06:57.109Z,15.50
2018-03-30T12:09:24.718Z,16.00
2018-03-30T12:11:52.292Z,16.10
2018-03-30T12:14:19.795Z,16.10
2018-03-30T12:16:47.264Z,16.00
2018-03-30T12:19:14.799Z,15.90
2018-03-30T12:21:42.303Z,15.60
2018-03-30T12:24:09.940Z,15.80
2018-03-30T12:26:37.497Z,15.70
2018-03-30T12:29:05.002Z,15.80
2018-03-30T12:31:32.462Z,16.00
2018-03-30T12:33:59.955Z,15.60
2018-03-30T12:36:27.490Z,15.60
2018-03-30T12:38:55.731Z,15.80
2018-03-30T12:41:23.247Z,15.80
2018-03-30T12:43:50.730Z,15.80
2018-03-30T12:46:18.369Z,15.70
2018-03-30T12:48:45.848Z,15.70
2018-03-30T12:51:13.358Z,15.80
2018-03-30T12:53:41.037Z,15.70
2018-03-30T12:56:09.269Z,15.40
2018-03-30T12:58:36.769Z,15.40
2018-03-30T13:01:05.107Z,15.60
2018-03-30T13:03:32.623Z,15.50
2018-03-30T13:06:00.125Z,15.80
2018-03-30T13:08:27.611Z,15.60
2018-03-30T13:10:55.252Z,15.70
2018-03-30T13:13:22.738Z,15.60
2018-03-30T13:15:51.026Z,15.20
2018-03-30T13:18:19.309Z,14.90
2018-03-30T13:20:46.776Z,14.90
2018-03-30T13:23:14.313Z,14.60
2018-03-30T13:25:42.579Z,14.70
2018-03-30T13:28:10.061Z,14.70
2018-03-30T13:30:37.551Z,14.80
2018-03-30T13:33:05.022Z,14.60
2018-03-30T13:35:32.505Z,14.40
2018-03-30T13:37:59.990Z,14.40
2018-03-30T13:40:28.252Z,14.40
2018-03-30T13:42:55.769Z,14.40
2018-03-30T13:45:23.266Z,14.50
2018-03-30T13:47:50.833Z,14.50
2018-03-30T13:50:29.012Z,14.20
2018-03-30T13:53:10.259Z,14.10
2018-03-30T13:55:38.606Z,14.00
2018-03-30T13:58:27.723Z,14.20
2018-03-30T14:00:58.897Z,14.20
2018-03-30T14:03:34.131Z,14.30
2018-03-30T14:06:01.673Z,14.30
2018-03-30T14:08:30.813Z,14.20
2018-03-30T14:10:59.247Z,14.00
2018-03-30T14:13:26.766Z,14.00
2018-03-30T14:15:59.010Z,13.90
2018-03-30T14:18:40.965Z,13.90
2018-03-30T14:21:12.045Z,14.00
2018-03-30T14:23:39.568Z,13.80
2018-03-30T14:26:10.732Z,13.80
2018-03-30T14:28:46.066Z,13.70
2018-03-30T14:34:15.090Z,13.50
2018-03-30T14:37:01.165Z,13.50
2018-03-30T14:39:35.232Z,13.50
2018-03-30T14:42:02.764Z,13.50
2018-03-30T14:44:30.306Z,13.50
2018-03-30T14:47:02.782Z,13.60
2018-03-30T14:49:35.034Z,13.70
2018-03-30T14:55:24.466Z,13.60
2018-03-30T14:57:57.743Z,13.50
2018-03-30T15:00:32.135Z,13.40
2018-03-30T15:06:16.264Z,13.40
2018-03-30T15:08:45.410Z,13.40
2018-03-30T15:14:10.704Z,13.40
2018-03-30T15:16:48.959Z,13.40
2018-03-30T15:19:16.747Z,13.30
2018-03-30T15:21:53.213Z,13.20
2018-03-30T15:24:39.166Z,13.20
2018-03-30T15:27:25.366Z,13.00
2018-03-30T15:32:52.419Z,12.90
2018-03-30T15:35:20.762Z,12.90
2018-03-30T15:37:48.240Z,12.90
2018-03-30T15:40:18.490Z,12.90
2018-03-30T15:42:47.953Z,12.90
2018-03-30T15:45:31.247Z,12.80
2018-03-30T15:47:59.567Z,12.80
2018-03-30T15:50:27.118Z,12.80
2018-03-30T15:52:54.628Z,12.80
2018-03-30T15:55:22.115Z,12.90
2018-03-30T15:57:49.659Z,12.80
2018-03-30T16:00:19.395Z,12.80
2018-03-30T16:02:46.915Z,12.70
2018-03-30T16:05:14.439Z,12.70
2018-03-30T16:07:41.992Z,12.60
2018-03-30T16:10:17.390Z,12.70
2018-03-30T16:12:46.078Z,12.70
2018-03-30T16:15:13.649Z,12.70
2018-03-30T16:17:41.150Z,12.70
2018-03-30T16:20:08.199Z,12.60
2018-03-30T16:22:35.214Z,12.60
2018-03-30T16:25:03.203Z,12.50
2018-03-30T16:27:30.273Z,12.50
2018-03-30T16:29:57.330Z,12.60
2018-03-30T16:32:25.286Z,12.60
2018-03-30T16:34:53.479Z,12.60
2018-03-30T16:37:20.807Z,12.50
2018-03-30T16:39:47.850Z,12.50
2018-03-30T16:42:14.877Z,12.40
2018-03-30T16:44:42.068Z,12.40
2018-03-30T16:47:09.103Z,12.40
2018-03-30T16:49:36.119Z,12.30
2018-03-30T16:52:03.252Z,12.20
2018-03-30T16:54:30.389Z,12.20
2018-03-30T16:56:57.411Z,12.20
2018-03-30T16:59:25.264Z,12.10
2018-03-30T17:01:52.311Z,12.10
2018-03-30T17:04:19.351Z,11.90
2018-03-30T17:06:46.381Z,11.80
2018-03-30T17:09:13.401Z,11.60
2018-03-30T17:11:41.182Z,11.40
2018-03-30T17:14:08.228Z,11.40
2018-03-30T17:16:35.242Z,11.40
2018-03-30T17:19:02.990Z,11.10
2018-03-30T17:21:29.999Z,11.00
2018-03-30T17:23:57.011Z,11.10
2018-03-30T17:26:24.821Z,10.90
2018-03-30T17:28:51.825Z,10.90
2018-03-30T17:31:19.662Z,10.80
2018-03-30T17:33:46.675Z,10.80
2018-03-30T17:36:13.676Z,10.70
2018-03-30T17:38:40.709Z,10.70
2018-03-30T17:41:07.757Z,10.60
2018-03-30T17:43:34.777Z,10.50
2018-03-30T17:46:02.252Z,10.40
2018-03-30T17:48:29.271Z,10.40
2018-03-30T17:50:57.078Z,10.40
2018-03-30T17:53:24.108Z,10.40
2018-03-30T17:55:51.140Z,10.30
2018-03-30T17:58:18.982Z,10.20
2018-03-30T18:00:46.151Z,10.10
2018-03-30T18:03:13.232Z,10.20
2018-03-30T18:05:40.232Z,10.10
2018-03-30T18:08:07.234Z,10.00
2018-03-30T18:10:34.255Z,10.00
2018-03-30T18:13:01.270Z,10.00
2018-03-30T18:15:28.268Z,10.00
2018-03-30T18:17:55.272Z,10.10
2018-03-30T18:20:22.342Z,10.00
2018-03-30T18:22:49.410Z,10.00
2018-03-30T18:25:16.482Z,9.90
2018-03-30T18:27:43.577Z,9.80
2018-03-30T18:30:10.561Z,9.70
2018-03-30T18:32:38.779Z,9.40
2018-03-30T18:35:06.538Z,9.20
2018-03-30T18:37:35.220Z,9.10
2018-03-30T18:40:02.480Z,9.10
2018-03-30T18:42:30.086Z,8.90
2018-03-30T18:44:57.184Z,8.80
2018-03-30T18:47:24.985Z,8.60
2018-03-30T18:49:52.067Z,8.60
2018-03-30T18:52:19.054Z,8.50
2018-03-30T18:54:46.852Z,8.30
2018-03-30T18:57:17.577Z,8.30
2018-03-30T18:59:44.694Z,8.30
2018-03-30T19:02:11.768Z,8.20
2018-03-30T19:04:38.796Z,8.30
2018-03-30T19:07:06.565Z,8.20
2018-03-30T19:09:34.523Z,8.20
2018-03-30T19:12:02.378Z,8.20
2018-03-30T19:14:29.392Z,8.20
2018-03-30T19:16:56.398Z,8.20
2018-03-30T19:19:25.157Z,8.20
2018-03-30T19:21:52.292Z,8.10
2018-03-30T19:24:19.565Z,8.10
2018-03-30T19:26:47.378Z,8.00
2018-03-30T19:29:14.494Z,8.00
2018-03-30T19:31:42.030Z,7.90
2018-03-30T19:34:09.998Z,7.90
2018-03-30T19:36:37.173Z,7.80
2018-03-30T19:39:05.039Z,7.90
2018-03-30T19:41:32.047Z,7.80
2018-03-30T19:43:59.035Z,7.80
2018-03-30T19:46:26.068Z,7.80
2018-03-30T19:48:53.128Z,7.80
2018-03-30T19:51:20.154Z,7.80
2018-03-30T19:53:47.194Z,7.70
2018-03-30T19:56:14.298Z,7.70
2018-03-30T19:58:42.066Z,7.50
2018-03-30T20:01:09.832Z,7.50
2018-03-30T20:03:40.714Z,7.40
2018-03-30T20:06:07.807Z,7.40
2018-03-30T20:08:35.611Z,7.30
2018-03-30T20:11:02.709Z,7.30
2018-03-30T20:13:30.481Z,7.40
2018-03-30T20:15:57.722Z,7.40
2018-03-30T20:18:24.781Z,7.50
2018-03-30T20:20:52.564Z,7.50
2018-03-30T20:23:19.599Z,7.50
2018-03-30T20:25:46.617Z,7.50
2018-03-30T20:28:13.711Z,7.40
2018-03-30T20:30:41.488Z,7.20
2018-03-30T20:33:08.512Z,7.20
2018-03-30T20:35:36.382Z,7.00
2018-03-30T20:38:04.339Z,6.90
2018-03-30T20:40:31.354Z,6.80
2018-03-30T20:42:58.362Z,6.80
2018-03-30T20:45:25.904Z,6.70
2018-03-30T20:47:52.938Z,6.60
2018-03-30T20:50:19.944Z,6.60
2018-03-30T20:52:46.952Z,6.60
2018-03-30T20:55:14.338Z,6.60
2018-03-30T20:57:41.432Z,6.60
2018-03-30T21:00:09.228Z,6.60
2018-03-30T21:02:37.210Z,6.50
2018-03-30T21:05:04.245Z,6.50
2018-03-30T21:07:33.512Z,6.40
2018-03-30T21:10:00.613Z,6.50
2018-03-30T21:12:28.002Z,6.50
2018-03-30T21:14:55.935Z,6.60
2018-03-30T21:17:23.446Z,6.70
2018-03-30T21:19:54.076Z,6.70
2018-03-30T21:22:21.114Z,6.70
2018-03-30T21:24:48.216Z,6.70
2018-03-30T21:27:16.145Z,6.50
2018-03-30T21:29:43.188Z,6.50
2018-03-30T21:32:10.757Z,6.30
2018-03-30T21:34:37.839Z,6.20
2018-03-30T21:37:04.885Z,6.20
2018-03-30T21:39:32.754Z,6.20
2018-03-30T21:42:00.586Z,6.10
2018-03-30T21:44:28.489Z,6.10
2018-03-30T21:46:56.393Z,6.10
2018-03-30T21:49:23.414Z,6.10
2018-03-30T21:51:50.462Z,6.00
2018-03-30T21:54:17.446Z,5.90
2018-03-30T21:56:44.453Z,5.70
2018-03-30T21:59:11.440Z,5.70
2018-03-30T22:01:38.536Z,5.60
2018-03-30T22:04:06.345Z,5.40
2018-03-30T22:06:33.323Z,5.40
2018-03-30T22:09:00.319Z,5.30
2018-03-30T22:11:27.317Z,5.40
2018-03-30T22:13:54.414Z,5.20
2018-03-30T22:16:21.483Z,5.20
2018-03-30T22:18:48.503Z,5.20
2018-03-30T22:21:15.497Z,5.20
2018-03-30T22:23:42.518Z,5.00
2018-03-30T22:26:09.530Z,5.20
2018-03-30T22:28:37.327Z,5.20
2018-03-30T22:31:04.365Z,5.10
2018-03-30T22:33:31.552Z,5.10
2018-03-30T22:35:58.583Z,5.10
2018-03-30T22:38:25.798Z,5.20
2018-03-30T22:40:53.567Z,5.20
2018-03-30T22:43:21.393Z,5.30
2018-03-30T22:45:48.502Z,5.30
2018-03-30T22:48:15.500Z,5.30
2018-03-30T22:50:42.516Z,5.40
2018-03-30T22:53:09.609Z,5.40
2018-03-30T22:55:36.626Z,5.40
2018-03-30T22:58:03.622Z,5.40
2018-03-30T23:00:31.403Z,5.40
2018-03-30T23:02:58.536Z,5.40
2018-03-30T23:05:25.513Z,5.40
2018-03-30T23:07:52.547Z,5.40
2018-03-30T23:10:19.567Z,5.30
2018-03-30T23:12:47.334Z,5.20
2018-03-30T23:15:15.103Z,5.20
2018-03-30T23:17:43.099Z,5.10
2018-03-30T23:20:10.141Z,5.10
2018-03-30T23:22:37.163Z,5.10
2018-03-30T23:25:05.007Z,5.10
2018-03-30T23:27:32.002Z,5.00
2018-03-30T23:29:59.021Z,5.00
2018-03-30T23:32:26.099Z,4.90
2018-03-30T23:34:53.084Z,5.00
2018-03-30T23:37:20.092Z,5.00
2018-03-30T23:39:47.098Z,5.00
2018-03-30T23:42:14.092Z,5.00
2018-03-30T23:44:41.138Z,5.00
2018-03-30T23:47:08.139Z,5.10
2018-03-30T23:49:35.114Z,5.10
2018-03-30T23:52:02.164Z,5.00
2018-03-30T23:54:29.189Z,5.00
2018-03-30T23:56:56.262Z,5.00
2018-03-30T23:59:24.024Z,5.00
